Terminal Aerodrome Forecast
Issued by NWS Melbourne, FL

Home | Current Version | Previous Version | Text Only | Print | Product List | Glossary On
Versions: 1 2 3 4 5 6 7 8 9 10 11 12 13 14
124
FTUS42 KMLB 240540
TAFVRB
TAF
KVRB 240540Z 2406/2506 12005KT P6SM FEW035 SCT050
     FM241500 08012KT P6SM SCT040
     FM250000 09008KT P6SM FEW040 SCT250=

USA.gov is the U.S. government's official web portal to all federal, state and local government web resources and services.